< < Back
Terminal Aerodrome Forecast


Current Version              Previous Versions:   1  2  3  4  5  6  7  8  9  

Terminal Aerodrome Forecast

090
FTUS42 KILM 221700
TAFFLO
TAF
KFLO 221726Z 2218/2318 05007KT P6SM VCSH BKN020 BKN060
     FM221930 10005KT 6SM SHRA SCT025 BKN035 BKN060
     FM230000 VRB03KT P6SM VCSH SCT025 BKN150
     FM230600 VRB02KT 2SM BR SCT002 BKN015 BKN150
     FM231400 28004KT P6SM VCSH FEW003 SCT015 SCT250=

Latest METAR

555
SAUS70 KWBC 230400
MTRFLO
METAR KFLO 230353Z AUTO 20005KT 10SM CLR 25/24 A3010 RMK AO2 SLP190
T02500239


USA.gov is the U.S. government's official web portal to all federal, state and local government web resources and services.